createdAt,value
2018-10-05T00:00:11.716Z,23.6
2018-10-05T00:01:01.487Z,23.6
2018-10-05T00:01:51.812Z,23.6
2018-10-05T00:02:42.739Z,23.6
2018-10-05T00:03:32.229Z,23.6
2018-10-05T00:04:22.315Z,23.6
2018-10-05T00:05:11.777Z,23.6
2018-10-05T00:06:01.885Z,23.6
2018-10-05T00:06:52.196Z,23.6
2018-10-05T00:25:11.470Z,23.5
2018-10-05T00:26:01.486Z,23.5
2018-10-05T00:26:51.519Z,23.5
2018-10-05T00:27:41.303Z,23.5
2018-10-05T00:28:31.379Z,23.5
2018-10-05T00:29:21.407Z,23.5
2018-10-05T00:30:11.702Z,23.5
2018-10-05T00:31:01.304Z,23.4
2018-10-05T00:31:51.897Z,23.5
2018-10-05T00:32:41.704Z,23.5
2018-10-05T00:33:31.714Z,23.5
2018-10-05T00:34:21.509Z,23.5
2018-10-05T00:35:11.846Z,23.5
2018-10-05T00:36:01.932Z,23.5
2018-10-05T00:36:51.967Z,23.5
2018-10-05T00:37:42.036Z,23.5
2018-10-05T00:38:32.372Z,23.5
2018-10-05T00:39:22.837Z,23.5
2018-10-05T00:40:12.517Z,23.4
2018-10-05T00:41:02.573Z,23.4
2018-10-05T00:41:52.750Z,23.4
2018-10-05T00:42:42.416Z,23.5
2018-10-05T00:43:32.462Z,23.4
2018-10-05T00:44:22.216Z,23.4
2018-10-05T00:45:13.356Z,23.4
2018-10-05T00:46:02.928Z,23.4
2018-10-05T00:46:52.704Z,23.5
2018-10-05T00:47:43.055Z,23.4
2018-10-05T00:48:32.537Z,23.4
2018-10-05T00:49:23.143Z,23.4
2018-10-05T00:50:12.918Z,23.4
2018-10-05T00:51:03.293Z,23.4
2018-10-05T00:51:53.065Z,23.4
2018-10-05T00:52:43.690Z,23.4
2018-10-05T00:53:34.345Z,23.4
2018-10-05T00:54:22.703Z,23.4
2018-10-05T00:55:13.346Z,23.4
2018-10-05T00:56:03.380Z,23.4
2018-10-05T00:56:53.434Z,23.4
2018-10-05T00:57:43.565Z,23.4
2018-10-05T00:58:33.856Z,23.4
2018-10-05T00:59:23.898Z,23.4
2018-10-05T01:00:14.204Z,23.4
2018-10-05T01:01:03.212Z,23.4
2018-10-05T01:01:54.390Z,23.4
2018-10-05T01:02:44.218Z,23.4
2018-10-05T01:03:34.202Z,23.4
2018-10-05T01:04:24.010Z,23.4
2018-10-05T01:05:28.678Z,23.4
2018-10-05T01:06:04.405Z,23.4
2018-10-05T01:06:53.890Z,23.4
2018-10-05T01:07:44.519Z,23.4
2018-10-05T01:08:34.273Z,23.4
2018-10-05T01:09:24.655Z,23.4
2018-10-05T01:10:14.117Z,23.4
2018-10-05T01:11:04.765Z,23.4
2018-10-05T01:11:54.812Z,23.4
2018-10-05T01:12:44.617Z,23.4
2018-10-05T01:13:34.891Z,23.4
2018-10-05T01:14:24.508Z,23.4
2018-10-05T01:15:14.526Z,23.4
2018-10-05T01:16:04.864Z,23.4
2018-10-05T01:16:54.937Z,23.4
2018-10-05T01:17:45.275Z,23.4
2018-10-05T01:18:35.314Z,23.4
2018-10-05T01:19:25.114Z,23.4
2018-10-05T01:20:14.875Z,23.4
2018-10-05T01:21:05.516Z,23.4
2018-10-05T01:21:55.539Z,23.4
2018-10-05T01:22:45.099Z,23.4
2018-10-05T01:23:35.681Z,23.4
2018-10-05T01:24:24.631Z,23.4
2018-10-05T01:25:15.534Z,23.4
2018-10-05T01:26:06.119Z,23.4
2018-10-05T01:26:55.649Z,23.4
2018-10-05T01:27:45.454Z,23.4
2018-10-05T01:28:36.080Z,23.4
2018-10-05T01:29:25.569Z,23.4
2018-10-05T01:30:15.608Z,23.4
2018-10-05T01:31:06.289Z,23.4
2018-10-05T01:31:56.073Z,23.3
2018-10-05T01:32:46.368Z,23.4
2018-10-05T01:33:36.441Z,23.3
2018-10-05T01:34:26.197Z,23.3
2018-10-05T01:35:16.266Z,23.4
2018-10-05T01:36:06.343Z,23.4
2018-10-05T01:36:56.690Z,23.3
2018-10-05T01:37:46.448Z,23.3
2018-10-05T01:38:36.850Z,23.3
2018-10-05T01:39:26.861Z,23.3
2018-10-05T01:40:16.911Z,23.3
2018-10-05T01:41:06.985Z,23.3
2018-10-05T01:41:56.985Z,23.3
2018-10-05T01:42:46.818Z,23.3
2018-10-05T01:43:37.190Z,23.3
2018-10-05T01:44:27.273Z,23.3
2018-10-05T01:45:17.339Z,23.3
2018-10-05T01:46:07.080Z,23.3
2018-10-05T01:46:57.116Z,23.3
2018-10-05T01:47:46.048Z,23.3
2018-10-05T01:48:36.975Z,23.3
2018-10-05T01:49:27.345Z,23.3
2018-10-05T01:50:17.685Z,23.3
2018-10-05T01:51:07.180Z,23.3
2018-10-05T01:51:57.822Z,23.3
2018-10-05T01:52:47.580Z,23.3
2018-10-05T01:53:37.632Z,23.3
2018-10-05T01:54:27.980Z,23.3
2018-10-05T01:55:17.508Z,23.3
2018-10-05T01:56:07.237Z,23.3
2018-10-05T01:56:58.125Z,23.3
2018-10-05T01:57:48.412Z,23.3
2018-10-05T01:58:38.005Z,23.3
2018-10-05T01:59:28.550Z,23.3
2018-10-05T02:00:18.412Z,23.3
2018-10-05T02:01:08.234Z,23.3
2018-10-05T02:01:58.854Z,23.3
2018-10-05T02:02:48.317Z,23.3
2018-10-05T02:03:38.645Z,23.3
2018-10-05T02:04:28.140Z,23.3
2018-10-05T02:05:18.200Z,23.3
2018-10-05T02:06:08.547Z,23.3
2018-10-05T02:06:58.048Z,23.3
2018-10-05T02:07:49.212Z,23.3
2018-10-05T02:08:38.456Z,23.3
2018-10-05T02:09:29.336Z,23.3
2018-10-05T02:10:18.609Z,23.3
2018-10-05T02:11:08.639Z,23.3
2018-10-05T02:11:59.264Z,23.3
2018-10-05T02:12:48.504Z,23.3
2018-10-05T02:13:39.375Z,23.3
2018-10-05T02:14:29.432Z,23.3
2018-10-05T02:15:19.228Z,23.3
2018-10-05T02:16:09.293Z,23.3
2018-10-05T02:16:59.367Z,23.3
2018-10-05T02:18:39.756Z,23.3
2018-10-05T02:19:29.829Z,23.3
2018-10-05T02:20:19.926Z,23.3
2018-10-05T02:21:09.109Z,23.3
2018-10-05T02:21:59.457Z,23.3
2018-10-05T02:22:50.063Z,23.3
2018-10-05T02:23:39.854Z,23.3
2018-10-05T02:24:29.956Z,23.3
2018-10-05T02:25:19.936Z,23.3
2018-10-05T02:26:10.493Z,23.3
2018-10-05T02:26:59.837Z,23.3
2018-10-05T02:27:50.691Z,23.3
2018-10-05T02:28:40.225Z,23.3
2018-10-05T02:29:30.297Z,23.3
2018-10-05T02:30:20.628Z,23.2
2018-10-05T02:31:10.406Z,23.3
2018-10-05T02:32:00.779Z,23.3
2018-10-05T02:32:51.112Z,23.2
2018-10-05T02:33:41.138Z,23.3
2018-10-05T02:34:30.925Z,23.3
2018-10-05T02:35:35.662Z,23.2
2018-10-05T02:36:11.075Z,23.3
2018-10-05T02:37:15.743Z,23.2
2018-10-05T02:37:51.181Z,23.2
2018-10-05T02:38:40.950Z,23.3
2018-10-05T02:39:31.228Z,23.2
2018-10-05T02:40:20.810Z,23.2
2018-10-05T02:41:25.570Z,23.2
2018-10-05T02:42:01.495Z,23.2
2018-10-05T02:42:51.485Z,23.2
2018-10-05T02:43:41.595Z,23.2
2018-10-05T02:44:31.409Z,23.2
2018-10-05T02:45:21.721Z,23.2
2018-10-05T02:46:11.804Z,23.2
2018-10-05T02:47:01.547Z,23.2
2018-10-05T02:47:51.905Z,23.2
2018-10-05T02:48:41.971Z,23.2
2018-10-05T02:49:32.039Z,23.2
2018-10-05T02:50:22.100Z,23.2
2018-10-05T02:51:12.459Z,23.2
2018-10-05T02:52:02.249Z,23.2
2018-10-05T02:52:51.981Z,23.2
2018-10-05T02:53:42.294Z,23.2
2018-10-05T02:54:32.119Z,23.2
2018-10-05T02:55:21.899Z,23.2
2018-10-05T02:56:12.534Z,23.2
2018-10-05T02:57:02.020Z,23.2
2018-10-05T02:57:52.372Z,23.2
2018-10-05T02:58:42.170Z,23.2
2018-10-05T02:59:32.771Z,23.2
2018-10-05T03:00:22.535Z,23.2
2018-10-05T03:01:13.085Z,23.2
2018-10-05T03:02:02.691Z,23.2
2018-10-05T03:02:52.275Z,23.2
2018-10-05T03:03:43.117Z,23.2
2018-10-05T03:04:32.854Z,23.2
2018-10-05T03:05:23.234Z,23.1
2018-10-05T03:06:13.283Z,23.2
2018-10-05T03:07:03.048Z,23.2
2018-10-05T03:07:53.371Z,23.2
2018-10-05T03:08:43.753Z,23.1
2018-10-05T03:09:33.197Z,23.1
2018-10-05T03:10:23.321Z,23.1
2018-10-05T03:11:12.785Z,23.1
2018-10-05T03:12:04.003Z,23.1
2018-10-05T03:12:53.765Z,23.2
2018-10-05T03:13:43.810Z,23.2
2018-10-05T03:14:33.590Z,23.1
2018-10-05T03:15:23.665Z,23.1
2018-10-05T03:16:13.705Z,23.2
2018-10-05T03:17:03.782Z,23.1
2018-10-05T03:17:53.576Z,23.1
2018-10-05T03:18:44.199Z,23.2
2018-10-05T03:19:33.118Z,23.1
2018-10-05T03:20:24.037Z,23.1
2018-10-05T03:21:13.805Z,23.1
2018-10-05T03:22:04.462Z,23.1
2018-10-05T03:22:54.499Z,23.1
2018-10-05T03:23:44.259Z,23.1
2018-10-05T03:24:34.627Z,23.2
2018-10-05T03:25:25.530Z,23.2
2018-10-05T03:26:14.741Z,23.1
2018-10-05T03:27:04.524Z,23.2
2018-10-05T03:27:54.868Z,23.2
2018-10-05T03:28:45.187Z,23.2
2018-10-05T03:29:35.002Z,23.2
2018-10-05T03:30:25.079Z,23.2
2018-10-05T03:31:14.548Z,23.1
2018-10-05T03:32:04.922Z,23.2
2018-10-05T03:32:55.391Z,23.1
2018-10-05T03:33:45.032Z,23.2
2018-10-05T03:34:35.066Z,23.2
2018-10-05T03:35:25.687Z,23.1
2018-10-05T03:36:15.716Z,23.1
2018-10-05T03:37:05.763Z,23.2
2018-10-05T03:37:55.594Z,23.2
2018-10-05T03:38:45.661Z,23.2
2018-10-05T03:39:36.011Z,23.2
2018-10-05T03:40:25.780Z,23.2
2018-10-05T03:41:15.552Z,23.2
2018-10-05T03:42:05.609Z,23.2
2018-10-05T03:42:55.673Z,23.2
2018-10-05T03:43:46.031Z,23.2
2018-10-05T03:44:36.064Z,23.2
2018-10-05T03:45:26.165Z,23.2
2018-10-05T03:46:16.236Z,23.2
2018-10-05T03:47:06.263Z,23.2
2018-10-05T03:47:56.275Z,23.2
2018-10-05T03:48:45.845Z,23.2
2018-10-05T03:49:35.615Z,23.2
2018-10-05T03:50:25.977Z,23.2
2018-10-05T03:51:16.565Z,23.2
2018-10-05T03:52:06.365Z,23.2
2018-10-05T03:52:56.442Z,23.2
2018-10-05T03:53:46.200Z,23.1
2018-10-05T03:54:36.825Z,23.1
2018-10-05T03:55:26.350Z,23.1
2018-10-05T03:56:16.693Z,23.1
2018-10-05T03:57:06.753Z,23.1
2018-10-05T03:57:56.859Z,23.1
2018-10-05T03:58:47.128Z,23.1
2018-10-05T03:59:36.930Z,23.2
2018-10-05T04:00:26.997Z,23.1
2018-10-05T04:01:17.007Z,23.1
2018-10-05T04:02:07.098Z,23.1
2018-10-05T04:02:56.878Z,23.1
2018-10-05T04:03:46.953Z,23.1
2018-10-05T04:04:37.090Z,23.1
2018-10-05T04:05:27.631Z,23.1
2018-10-05T04:06:17.679Z,23.1
2018-10-05T04:07:07.506Z,23.1
2018-10-05T04:07:57.212Z,23.1
2018-10-05T04:08:47.606Z,23.1
2018-10-05T04:09:37.659Z,23.1
2018-10-05T04:10:27.164Z,23.1
2018-10-05T04:11:19.612Z,23.1
2018-10-05T04:12:07.850Z,23.1
2018-10-05T04:12:57.934Z,23.1
2018-10-05T04:13:47.959Z,23.1
2018-10-05T04:14:38.009Z,23.1
2018-10-05T04:15:27.803Z,23.1
2018-10-05T04:16:18.426Z,23.1
2018-10-05T04:17:08.410Z,23.1
2018-10-05T04:17:58.264Z,23.1
2018-10-05T04:18:48.341Z,23.1
2018-10-05T04:19:38.656Z,23.1
2018-10-05T04:20:28.465Z,23.1
2018-10-05T04:21:18.847Z,23.1
2018-10-05T04:22:08.609Z,23.1
2018-10-05T04:22:58.657Z,23.1
2018-10-05T04:23:48.413Z,23.1
2018-10-05T04:24:38.291Z,23.1
2018-10-05T04:25:28.823Z,23.1
2018-10-05T04:26:20.425Z,23.1
2018-10-05T04:27:09.575Z,23.1
2018-10-05T04:27:58.824Z,23.1
2018-10-05T04:28:49.051Z,23.1
2018-10-05T04:29:38.846Z,23.1
2018-10-05T04:30:29.466Z,23.1
2018-10-05T04:31:19.066Z,23.1
2018-10-05T04:32:09.119Z,23.1
2018-10-05T04:32:59.173Z,23.1
2018-10-05T04:33:48.945Z,23.1
2018-10-05T04:34:38.709Z,23.1
2018-10-05T04:35:29.730Z,23.1
2018-10-05T04:36:19.403Z,23.1
2018-10-05T04:54:32.420Z,23
2018-10-05T04:55:23.519Z,23
2018-10-05T04:56:13.577Z,23
2018-10-05T04:57:03.472Z,23
2018-10-05T04:57:53.189Z,23
2018-10-05T04:58:43.227Z,23
2018-10-05T04:59:34.068Z,23
2018-10-05T05:00:23.849Z,23
2018-10-05T05:01:13.436Z,23
2018-10-05T05:02:03.224Z,23
2018-10-05T05:02:53.749Z,23
2018-10-05T05:03:43.648Z,23
2018-10-05T05:04:34.166Z,23
2018-10-05T05:05:23.493Z,23
2018-10-05T05:06:13.444Z,23
2018-10-05T05:07:04.090Z,22.9
2018-10-05T05:07:54.136Z,22.9
2018-10-05T05:08:43.703Z,23
2018-10-05T05:09:34.019Z,23
2018-10-05T05:10:24.124Z,22.9
2018-10-05T05:11:14.639Z,23
2018-10-05T05:12:04.467Z,22.9
2018-10-05T05:12:54.286Z,23
2018-10-05T05:13:43.513Z,22.9
2018-10-05T05:14:34.136Z,22.9
2018-10-05T05:15:24.472Z,22.9
2018-10-05T05:16:14.009Z,22.9
2018-10-05T05:17:04.296Z,22.9
2018-10-05T05:17:54.686Z,22.9
2018-10-05T05:18:44.508Z,22.9
2018-10-05T05:19:34.904Z,23
2018-10-05T05:20:25.099Z,22.9
2018-10-05T05:21:14.617Z,22.9
2018-10-05T05:22:04.428Z,22.9
2018-10-05T05:22:54.455Z,22.9
2018-10-05T05:23:45.103Z,22.9
2018-10-05T05:24:34.855Z,22.9
2018-10-05T05:25:25.123Z,22.9
2018-10-05T05:26:15.460Z,22.9
2018-10-05T05:27:05.811Z,22.9
2018-10-05T05:27:55.881Z,22.9
2018-10-05T05:28:45.961Z,22.9
2018-10-05T05:29:35.146Z,22.9
2018-10-05T05:30:26.294Z,22.9
2018-10-05T05:31:15.566Z,22.9
2018-10-05T05:32:05.919Z,22.9
2018-10-05T05:32:56.275Z,22.9
2018-10-05T05:33:47.031Z,23
2018-10-05T05:34:35.542Z,23
2018-10-05T05:35:26.412Z,22.9
2018-10-05T05:36:16.491Z,23
2018-10-05T05:37:06.249Z,23
2018-10-05T05:37:56.334Z,23
2018-10-05T05:38:46.628Z,23
2018-10-05T05:39:36.461Z,23
2018-10-05T05:40:27.557Z,22.9
2018-10-05T05:41:16.560Z,23
2018-10-05T05:42:06.890Z,22.9
2018-10-05T05:42:56.404Z,23
2018-10-05T05:43:47.070Z,23
2018-10-05T05:44:37.104Z,23
2018-10-05T05:45:26.880Z,23
2018-10-05T05:46:17.204Z,23
2018-10-05T05:47:07.267Z,22.9
2018-10-05T05:47:57.362Z,23
2018-10-05T05:48:47.647Z,23
2018-10-05T05:49:37.167Z,23
2018-10-05T05:50:27.245Z,23
2018-10-05T05:51:17.282Z,23
2018-10-05T05:52:07.682Z,23
2018-10-05T05:52:57.447Z,23
2018-10-05T05:53:48.123Z,23
2018-10-05T05:54:38.375Z,23
2018-10-05T05:55:27.907Z,23
2018-10-05T05:56:18.218Z,23
2018-10-05T05:57:07.455Z,23
2018-10-05T05:57:57.540Z,23
2018-10-05T05:58:48.110Z,23
2018-10-05T05:59:37.932Z,23
2018-10-05T06:00:28.281Z,23
2018-10-05T06:01:17.663Z,23
2018-10-05T06:02:08.376Z,23
2018-10-05T06:02:58.484Z,23
2018-10-05T06:03:48.527Z,23
2018-10-05T06:04:38.287Z,23
2018-10-05T06:05:28.372Z,23
2018-10-05T06:06:18.424Z,22.9
2018-10-05T06:07:08.491Z,23
2018-10-05T06:07:58.969Z,22.9
2018-10-05T06:08:48.911Z,23
2018-10-05T06:09:38.689Z,22.9
2018-10-05T06:10:28.986Z,23
2018-10-05T06:11:18.801Z,22.9
2018-10-05T06:12:08.557Z,23
2018-10-05T06:12:58.613Z,22.9
2018-10-05T06:13:49.007Z,23
2018-10-05T06:14:39.323Z,22.9
2018-10-05T06:15:29.697Z,22.9
2018-10-05T06:16:19.496Z,22.9
2018-10-05T06:17:09.171Z,23
2018-10-05T06:17:59.550Z,23
2018-10-05T06:18:49.619Z,22.9
2018-10-05T06:19:39.731Z,23
2018-10-05T06:20:29.797Z,22.9
2018-10-05T06:21:19.544Z,22.9
2018-10-05T06:22:10.321Z,22.9
2018-10-05T06:22:59.669Z,22.9
2018-10-05T06:23:49.696Z,22.9
2018-10-05T06:24:40.026Z,23
2018-10-05T06:25:30.146Z,22.9
2018-10-05T06:26:19.875Z,22.9
2018-10-05T06:27:10.611Z,22.9
2018-10-05T06:28:00.291Z,22.9
2018-10-05T06:28:50.330Z,22.9
2018-10-05T06:29:40.403Z,22.9
2018-10-05T06:30:30.892Z,22.9
2018-10-05T06:31:21.078Z,22.9
2018-10-05T06:32:10.383Z,22.9
2018-10-05T06:33:00.244Z,22.9
2018-10-05T06:33:50.735Z,22.9
2018-10-05T06:34:41.015Z,22.9
2018-10-05T06:35:30.562Z,22.9
2018-10-05T06:36:20.613Z,22.9
2018-10-05T06:37:11.264Z,22.9
2018-10-05T06:38:00.972Z,22.9
2018-10-05T06:38:50.620Z,22.9
2018-10-05T06:39:40.884Z,22.9
2018-10-05T06:40:30.968Z,22.9
2018-10-05T06:41:20.974Z,22.9
2018-10-05T06:42:12.711Z,22.9
2018-10-05T06:43:01.107Z,22.9
2018-10-05T06:43:50.857Z,22.9
2018-10-05T06:44:40.660Z,22.9
2018-10-05T06:45:31.584Z,22.9
2018-10-05T06:46:21.352Z,22.9
2018-10-05T06:47:11.147Z,22.9
2018-10-05T06:48:01.725Z,22.9
2018-10-05T06:48:51.531Z,22.9
2018-10-05T06:49:41.596Z,22.9
2018-10-05T06:50:31.654Z,22.9
2018-10-05T06:51:21.994Z,22.9
2018-10-05T06:52:11.509Z,22.9
2018-10-05T06:53:01.842Z,22.9
2018-10-05T06:53:51.622Z,22.9
2018-10-05T06:54:42.030Z,22.9
2018-10-05T06:55:31.748Z,22.9
2018-10-05T06:56:22.379Z,22.9
2018-10-05T06:57:12.414Z,22.9
2018-10-05T06:58:02.759Z,22.9
2018-10-05T06:58:52.281Z,22.9
2018-10-05T06:59:42.859Z,22.9
2018-10-05T07:00:32.368Z,22.9
2018-10-05T07:01:22.340Z,22.9
2018-10-05T07:02:12.817Z,22.9
2018-10-05T07:03:02.289Z,22.9
2018-10-05T07:03:52.629Z,22.9
2018-10-05T07:04:42.449Z,22.9
2018-10-05T07:05:32.759Z,22.9
2018-10-05T07:06:22.798Z,22.9
2018-10-05T07:07:12.888Z,22.9
2018-10-05T07:08:03.840Z,22.9
2018-10-05T07:08:52.999Z,22.9
2018-10-05T07:09:42.780Z,22.6
2018-10-05T07:10:32.831Z,25.2
2018-10-05T07:11:23.205Z,46.9
2018-10-05T07:12:12.932Z,55.8
2018-10-05T07:13:03.582Z,55.7
2018-10-05T07:13:53.380Z,55.3
2018-10-05T07:14:43.467Z,54.2
2018-10-05T07:15:33.487Z,52.9
2018-10-05T07:16:23.613Z,52.1
2018-10-05T07:17:14.145Z,51.3
2018-10-05T07:18:03.935Z,50.6
2018-10-05T07:18:53.800Z,49.9
2018-10-05T07:19:44.065Z,49.3
2018-10-05T07:20:33.867Z,48.6
2018-10-05T07:21:24.848Z,48
2018-10-05T07:22:13.705Z,47.4
2018-10-05T07:23:04.037Z,46.8
2018-10-05T07:23:54.111Z,46.3
2018-10-05T07:24:44.181Z,45.7
2018-10-05T07:25:33.939Z,45.1
2018-10-05T07:26:24.562Z,44.6
2018-10-05T07:27:14.677Z,44.1
2018-10-05T07:28:04.609Z,43.6
2018-10-05T07:28:54.776Z,43.1
2018-10-05T07:29:44.789Z,42.6
2018-10-05T07:30:34.902Z,42.3
2018-10-05T07:31:24.357Z,41.8
2018-10-05T07:32:14.734Z,41.4
2018-10-05T07:33:04.789Z,40.9
2018-10-05T07:33:54.866Z,40.6
2018-10-05T07:34:45.012Z,41.4
2018-10-05T07:35:34.971Z,44.4
2018-10-05T07:36:25.107Z,55.6
2018-10-05T07:37:15.492Z,60.4
2018-10-05T07:38:04.018Z,58.8
2018-10-05T07:38:55.495Z,57.4
2018-10-05T07:39:45.281Z,56.5
2018-10-05T07:40:35.620Z,55.8
2018-10-05T07:41:25.400Z,55.2
2018-10-05T07:42:15.452Z,54.4
2018-10-05T07:43:06.610Z,53.6
2018-10-05T07:43:55.538Z,52.9
2018-10-05T07:44:45.916Z,52.2
2018-10-05T07:45:35.668Z,51.5
2018-10-05T07:46:26.063Z,50.8
2018-10-05T07:47:15.835Z,50.2
2018-10-05T07:48:06.195Z,49.5
2018-10-05T07:48:56.200Z,48.9
2018-10-05T07:49:46.280Z,48.3
2018-10-05T07:50:35.795Z,47.9
2018-10-05T07:51:26.407Z,49.4
2018-10-05T07:52:16.200Z,55.8
2018-10-05T07:53:06.282Z,62.1
2018-10-05T07:53:56.855Z,62.4
2018-10-05T07:54:45.842Z,60.9
2018-10-05T07:55:36.765Z,58.7
2018-10-05T07:56:26.792Z,56.7
2018-10-05T07:57:16.392Z,55.6
2018-10-05T07:58:06.085Z,54.8
2018-10-05T07:58:56.975Z,54.3
2018-10-05T07:59:46.473Z,53.8
2018-10-05T08:00:37.086Z,53.1
2018-10-05T08:01:26.902Z,52.3
2018-10-05T08:02:17.200Z,52.6
2018-10-05T08:03:06.440Z,56.4
2018-10-05T08:03:57.334Z,62.2
2018-10-05T08:04:47.374Z,63.8
2018-10-05T08:05:36.694Z,63.5
2018-10-05T08:06:27.525Z,62
2018-10-05T08:07:17.595Z,59.9
2018-10-05T08:08:07.639Z,58.4
2018-10-05T08:08:57.734Z,58.6
2018-10-05T08:09:47.653Z,59.9
2018-10-05T08:10:37.350Z,61.2
2018-10-05T08:11:27.431Z,61.9
2018-10-05T08:12:17.226Z,62
2018-10-05T08:13:07.541Z,61.6
2018-10-05T08:13:57.311Z,61.1
2018-10-05T08:14:47.669Z,60.8
2018-10-05T08:15:37.719Z,61
2018-10-05T08:16:27.284Z,61.4
2018-10-05T08:17:18.046Z,61.9
2018-10-05T08:18:07.064Z,62.2
2018-10-05T08:18:58.002Z,62.3
2018-10-05T08:19:48.543Z,62.3
2018-10-05T08:20:38.273Z,62.3
2018-10-05T08:21:28.820Z,62.3
2018-10-05T08:22:17.939Z,62.3
2018-10-05T08:23:08.473Z,62.4
2018-10-05T08:23:58.813Z,62.8
2018-10-05T08:24:48.891Z,63
2018-10-05T08:25:38.935Z,63.1
2018-10-05T08:26:28.006Z,63.2
2018-10-05T08:27:18.911Z,63.3
2018-10-05T08:28:08.673Z,63.3
2018-10-05T08:28:58.621Z,63.4
2018-10-05T08:29:49.515Z,63.6
2018-10-05T08:30:39.026Z,63.8
2018-10-05T08:31:29.086Z,63.9
2018-10-05T08:32:18.913Z,64
2018-10-05T08:33:09.775Z,64.1
2018-10-05T08:34:00.253Z,64.2
2018-10-05T08:34:49.340Z,64.3
2018-10-05T08:35:39.141Z,64.4
2018-10-05T08:36:29.783Z,64.5
2018-10-05T08:37:19.258Z,64.6
2018-10-05T08:38:09.867Z,64.8
2018-10-05T08:38:59.637Z,64.9
2018-10-05T08:39:50.512Z,65
2018-10-05T08:40:40.052Z,65.1
2018-10-05T08:41:29.566Z,65.3
2018-10-05T08:42:20.417Z,65.4
2018-10-05T08:43:09.957Z,65.6
2018-10-05T08:43:59.807Z,65.7
2018-10-05T08:44:50.099Z,65.8
2018-10-05T08:45:40.372Z,65.9
2018-10-05T08:46:29.914Z,66
2018-10-05T08:47:20.515Z,66.1
2018-10-05T08:48:09.777Z,66.3
2018-10-05T08:48:59.837Z,66.3
2018-10-05T08:49:50.764Z,66.4
2018-10-05T08:50:40.259Z,66.6
2018-10-05T08:51:31.038Z,66.7
2018-10-05T08:52:21.803Z,66.8
2018-10-05T09:08:39.424Z,68.3
2018-10-05T09:09:29.486Z,68.4
2018-10-05T09:10:19.808Z,68.4
2018-10-05T09:11:09.142Z,68.6
2018-10-05T09:11:59.671Z,68.7
2018-10-05T09:12:49.696Z,68.8
2018-10-05T09:13:39.498Z,68.8
2018-10-05T09:14:29.288Z,68.9
2018-10-05T09:15:19.047Z,69
2018-10-05T09:16:09.386Z,69.1
2018-10-05T09:17:00.043Z,69.2
2018-10-05T09:17:50.343Z,69.3
2018-10-05T09:18:40.446Z,69.4
2018-10-05T09:19:29.635Z,69.4
2018-10-05T09:20:19.988Z,69.5
2018-10-05T09:21:10.331Z,69.6
2018-10-05T09:22:00.390Z,69.7
2018-10-05T09:22:50.709Z,69.6
2018-10-05T09:23:40.193Z,69.8
2018-10-05T09:24:30.595Z,69.9
2018-10-05T09:25:19.397Z,69.9
2018-10-05T09:26:10.690Z,70
2018-10-05T09:27:00.201Z,70.1
2018-10-05T09:27:50.817Z,70
2018-10-05T09:28:40.570Z,70.1
2018-10-05T09:29:30.937Z,70.1
2018-10-05T09:30:20.732Z,70.1
2018-10-05T09:31:10.514Z,70.1
2018-10-05T09:32:00.074Z,70.2
2018-10-05T09:32:50.629Z,70.3
2018-10-05T09:33:40.974Z,70.4
2018-10-05T09:34:31.564Z,70.3
2018-10-05T09:35:20.529Z,70.4
2018-10-05T09:36:11.689Z,70.4
2018-10-05T09:37:00.944Z,70.4
2018-10-05T09:37:52.431Z,70.4
2018-10-05T09:38:41.588Z,70.4
2018-10-05T09:39:31.411Z,70.4
2018-10-05T09:40:21.435Z,70.3
2018-10-05T09:41:11.191Z,70.3
2018-10-05T09:42:01.592Z,70.5
2018-10-05T09:42:52.149Z,70.5
2018-10-05T09:43:41.568Z,70.6
2018-10-05T09:44:31.769Z,70.7
2018-10-05T09:45:22.263Z,70.6
2018-10-05T09:46:12.436Z,70.6
2018-10-05T09:47:02.247Z,70.7
2018-10-05T09:47:51.800Z,70.8
2018-10-05T09:48:41.845Z,70.8
2018-10-05T09:49:31.671Z,70.8
2018-10-05T09:50:21.698Z,70.9
2018-10-05T09:51:12.778Z,70.7
2018-10-05T09:52:02.239Z,70.7
2018-10-05T09:52:52.421Z,70.8
2018-10-05T09:53:42.233Z,70.9
2018-10-05T09:54:32.751Z,70.9
2018-10-05T09:55:21.805Z,70.9
2018-10-05T09:56:11.603Z,71
2018-10-05T09:57:01.918Z,71
2018-10-05T09:57:52.815Z,70.9
2018-10-05T09:58:42.627Z,70.9
2018-10-05T09:59:32.738Z,71.1
2018-10-05T10:00:21.956Z,71.2
2018-10-05T10:01:13.043Z,71.3
2018-10-05T10:02:02.867Z,71.3
2018-10-05T10:02:53.163Z,71.3
2018-10-05T10:03:42.977Z,71.3
2018-10-05T10:04:33.065Z,71.3
2018-10-05T10:05:23.107Z,71.3
2018-10-05T10:06:12.963Z,71.4
2018-10-05T10:07:02.940Z,71.4
2018-10-05T10:07:53.728Z,71.3
2018-10-05T10:08:43.082Z,71.4
2018-10-05T10:09:33.137Z,71.6
2018-10-05T10:10:22.919Z,71.7
2018-10-05T10:11:13.000Z,71.7
2018-10-05T10:12:03.540Z,71.6
2018-10-05T10:12:53.092Z,71.7
2018-10-05T10:13:43.993Z,71.8
2018-10-05T10:14:34.219Z,71.9
2018-10-05T10:15:24.391Z,71.8
2018-10-05T10:16:13.581Z,71.9
2018-10-05T10:17:03.667Z,72.1
2018-10-05T10:17:54.232Z,72.1
2018-10-05T10:18:44.334Z,71.9
2018-10-05T10:19:33.785Z,72.1
2018-10-05T10:20:24.403Z,72.2
2018-10-05T10:21:14.625Z,72.3
2018-10-05T10:22:04.267Z,72.1
2018-10-05T10:22:54.623Z,72.2
2018-10-05T10:23:44.111Z,72.4
2018-10-05T10:24:34.731Z,72.4
2018-10-05T10:25:24.520Z,72.3
2018-10-05T10:26:15.136Z,72.3
2018-10-05T10:27:04.891Z,72.4
2018-10-05T10:27:55.202Z,72.5
2018-10-05T10:28:45.444Z,72.6
2018-10-05T10:29:36.036Z,72.5
2018-10-05T10:30:24.954Z,72.4
2018-10-05T10:31:15.223Z,72.5
2018-10-05T10:32:05.534Z,72.6
2018-10-05T10:32:55.071Z,72.6
2018-10-05T10:33:46.148Z,72.6
2018-10-05T10:34:36.098Z,72.7
2018-10-05T10:35:25.834Z,72.6
2018-10-05T10:36:15.893Z,72.5
2018-10-05T10:37:05.958Z,72.7
2018-10-05T10:37:55.421Z,72.8
2018-10-05T10:38:45.809Z,72.9
2018-10-05T10:39:36.371Z,72.9
2018-10-05T10:40:26.208Z,72.6
2018-10-05T10:41:16.236Z,72.7
2018-10-05T10:42:06.043Z,72.8
2018-10-05T10:42:55.511Z,72.8
2018-10-05T10:43:46.429Z,72.9
2018-10-05T10:44:36.202Z,72.9
2018-10-05T10:45:26.551Z,72.9
2018-10-05T10:46:16.606Z,72.9
2018-10-05T10:47:05.848Z,72.9
2018-10-05T10:47:56.450Z,72.9
2018-10-05T10:48:45.943Z,72.9
2018-10-05T10:49:36.571Z,72.7
2018-10-05T10:50:26.640Z,72.7
2018-10-05T10:51:16.232Z,72.8
2018-10-05T10:52:06.812Z,72.8
2018-10-05T10:52:56.664Z,72.8
2018-10-05T10:53:47.164Z,72.8
2018-10-05T10:54:36.949Z,72.7
2018-10-05T10:55:26.438Z,72.7
2018-10-05T10:56:18.156Z,72.6
2018-10-05T10:57:07.451Z,72.6
2018-10-05T10:57:57.470Z,72.6
2018-10-05T10:58:47.255Z,72.7
2018-10-05T10:59:37.020Z,72.7
2018-10-05T11:00:27.100Z,72.7
2018-10-05T11:01:17.683Z,72.7
2018-10-05T11:02:07.786Z,72.6
2018-10-05T11:02:57.813Z,72.4
2018-10-05T11:03:47.934Z,72.4
2018-10-05T11:04:38.919Z,72.5
2018-10-05T11:05:28.083Z,72.5
2018-10-05T11:06:17.509Z,72.5
2018-10-05T11:07:07.869Z,72.5
2018-10-05T11:07:58.011Z,72.5
2018-10-05T11:08:48.064Z,72.5
2018-10-05T11:09:38.404Z,72.5
2018-10-05T11:10:27.901Z,72.4
2018-10-05T11:11:19.462Z,72.4
2018-10-05T11:12:08.564Z,72.3
2018-10-05T11:12:57.725Z,72.2
2018-10-05T11:13:48.074Z,72.2
2018-10-05T11:14:38.154Z,72.2
2018-10-05T11:15:28.756Z,72.2
2018-10-05T11:16:18.819Z,72.2
2018-10-05T11:17:09.341Z,71.5
2018-10-05T11:17:58.658Z,71.6
2018-10-05T11:18:48.706Z,71.9
2018-10-05T11:19:39.089Z,72.3
2018-10-05T11:20:29.129Z,72.4
2018-10-05T11:21:19.229Z,72.3
2018-10-05T11:22:09.246Z,72.3
2018-10-05T11:22:59.008Z,72.2
2018-10-05T11:23:49.396Z,72.1
2018-10-05T11:24:39.461Z,72.1
2018-10-05T11:25:29.211Z,72.2
2018-10-05T11:26:19.568Z,72.3
2018-10-05T11:27:09.063Z,72.3
2018-10-05T11:27:59.678Z,72.3
2018-10-05T11:28:49.170Z,72.2
2018-10-05T11:29:40.361Z,72.2
2018-10-05T11:30:29.315Z,72.1
2018-10-05T11:31:19.959Z,72.1
2018-10-05T11:32:09.990Z,72.1
2018-10-05T11:33:00.081Z,72.1
2018-10-05T11:33:49.823Z,72.1
2018-10-05T11:34:40.174Z,72.1
2018-10-05T11:35:29.953Z,72.1
2018-10-05T11:36:20.078Z,72.1
2018-10-05T11:37:10.701Z,72
2018-10-05T11:37:59.932Z,71.9
2018-10-05T11:38:50.520Z,71.9
2018-10-05T11:39:40.085Z,71.9
2018-10-05T11:40:30.383Z,71.8
2018-10-05T11:41:19.635Z,71.8
2018-10-05T11:42:10.239Z,71.8
2018-10-05T11:43:00.620Z,71.7
2018-10-05T11:43:50.102Z,71.7
2018-10-05T11:44:40.431Z,71.7
2018-10-05T11:45:30.508Z,71.7
2018-10-05T11:46:21.011Z,71.7
2018-10-05T11:47:10.339Z,71.6
2018-10-05T11:48:00.695Z,71.6
2018-10-05T11:48:50.759Z,71.6
2018-10-05T11:49:41.002Z,71.5
2018-10-05T11:50:30.359Z,71.4
2018-10-05T11:51:21.011Z,71.4
2018-10-05T11:52:11.065Z,71.3
2018-10-05T11:53:00.847Z,71.3
2018-10-05T11:53:51.176Z,71.1
2018-10-05T11:54:41.264Z,71.1
2018-10-05T11:55:31.310Z,71.1
2018-10-05T11:56:21.852Z,71
2018-10-05T11:57:11.152Z,70.9
2018-10-05T11:58:01.423Z,70.8
2018-10-05T11:58:51.742Z,70.6
2018-10-05T11:59:41.627Z,70.5
2018-10-05T12:00:31.392Z,70.4
2018-10-05T12:01:22.237Z,70.4